Time;durP1;ratioP1;P1;durP2;ratioP2;P2;SDS_P1;SDS_P2;PMS_P1;PMS_P2;Temp;Humidity;BMP_temperature;BMP_pressure;BME280_temperature;BME280_humidity;BME280_pressure;Samples;Min_cycle;Max_cycle;Signal;HPM_P1;HPM_P2
2024/02/10 00:01:24;;;;;;;3.50;3.30;;;;;;;;;;6357050;28;20475;-58
2024/02/10 00:04:30;;;;;;;5.95;4.05;;;;;;;;;;6355254;28;20443;-57
2024/02/10 00:07:34;;;;;;;3.60;3.43;;;;;;;;;;6357590;28;20320;-58
2024/02/10 00:10:39;;;;;;;3.30;3.00;;;;;;;;;;6356895;28;20299;-58
2024/02/10 00:13:42;;;;;;;4.30;3.60;;;;;;;;;;6357000;28;20292;-57
2024/02/10 00:16:46;;;;;;;3.50;3.40;;;;;;;;;;6356824;28;20580;-57
2024/02/10 00:19:52;;;;;;;3.57;3.37;;;;;;;;;;6356936;28;20294;-57
2024/02/10 00:22:56;;;;;;;4.37;4.03;;;;;;;;;;6357181;28;20339;-56
2024/02/10 00:26:03;;;;;;;3.67;3.47;;;;;;;;;;6356933;28;20294;-56
2024/02/10 00:29:10;;;;;;;4.37;3.70;;;;;;;;;;6355997;28;20577;-57
2024/02/10 00:32:14;;;;;;;4.00;3.53;;;;;;;;;;6357012;28;20360;-56
2024/02/10 00:35:22;;;;;;;3.60;3.43;;;;;;;;;;6356744;28;20375;-55
2024/02/10 00:38:27;;;;;;;3.90;3.60;;;;;;;;;;6357128;28;20287;-56
2024/02/10 00:41:31;;;;;;;3.60;3.40;;;;;;;;;;6356554;28;20294;-57
2024/02/10 00:44:35;;;;;;;3.80;3.60;;;;;;;;;;6356166;28;20456;-56
2024/02/10 00:47:44;;;;;;;4.27;3.40;;;;;;;;;;6356900;28;20298;-56
2024/02/10 00:50:50;;;;;;;3.83;3.63;;;;;;;;;;6361365;28;20587;-56
2024/02/10 00:53:54;;;;;;;4.00;3.70;;;;;;;;;;6361622;28;20290;-56
2024/02/10 00:56:58;;;;;;;3.63;3.33;;;;;;;;;;6361261;28;20293;-55
2024/02/10 01:00:04;;;;;;;6.17;3.67;;;;;;;;;;6360943;28;20374;-56
2024/02/10 01:03:08;;;;;;;3.70;3.40;;;;;;;;;;6362084;28;20298;-57
2024/02/10 01:06:15;;;;;;;3.50;3.30;;;;;;;;;;6360885;28;20299;-56
2024/02/10 01:09:19;;;;;;;3.60;3.33;;;;;;;;;;6361071;28;20290;-55
2024/02/10 01:12:23;;;;;;;5.07;4.78;;;;;;;;;;6371856;27;20462;-58
2024/02/10 01:15:30;;;;;;;5.93;4.10;;;;;;;;;;6380646;27;20310;-55
2024/02/10 01:18:36;;;;;;;3.83;3.63;;;;;;;;;;6361220;28;20291;-56
2024/02/10 01:21:42;;;;;;;3.60;3.40;;;;;;;;;;6360717;28;20298;-58
2024/02/10 01:24:46;;;;;;;4.57;4.38;;;;;;;;;;6358378;28;20448;-57
2024/02/10 01:27:50;;;;;;;4.47;4.13;;;;;;;;;;6360739;28;20288;-57
2024/02/10 01:30:54;;;;;;;4.07;3.77;;;;;;;;;;6360322;28;20295;-55
2024/02/10 01:33:58;;;;;;;6.07;4.93;;;;;;;;;;6358618;28;20511;-58
2024/02/10 01:37:04;;;;;;;4.95;4.65;;;;;;;;;;6359179;28;20718;-56
2024/02/10 01:40:11;;;;;;;3.53;3.40;;;;;;;;;;6360087;28;20591;-55
2024/02/10 01:43:15;;;;;;;3.37;3.17;;;;;;;;;;6360329;28;20292;-55
2024/02/10 01:46:22;;;;;;;3.63;3.43;;;;;;;;;;6359731;28;20612;-56
2024/02/10 01:49:26;;;;;;;3.63;3.33;;;;;;;;;;6359752;28;20472;-53
2024/02/10 01:52:32;;;;;;;3.50;3.20;;;;;;;;;;6360463;28;20299;-56
2024/02/10 01:55:36;;;;;;;4.30;4.03;;;;;;;;;;6358007;28;20456;-57
2024/02/10 01:58:40;;;;;;;3.60;3.50;;;;;;;;;;6360656;28;20300;-57
2024/02/10 02:01:48;;;;;;;3.43;3.13;;;;;;;;;;6359411;28;20343;-57
2024/02/10 02:04:53;;;;;;;3.23;3.03;;;;;;;;;;6359718;28;20284;-58
2024/02/10 02:07:59;;;;;;;3.17;2.73;;;;;;;;;;6360113;28;20308;-57
2024/02/10 02:11:03;;;;;;;3.60;3.30;;;;;;;;;;6362131;27;20467;-54
2024/02/10 02:14:07;;;;;;;2.80;2.60;;;;;;;;;;6384747;27;20280;-58
2024/02/10 02:17:12;;;;;;;3.03;2.83;;;;;;;;;;6365549;27;20300;-57
2024/02/10 02:20:16;;;;;;;3.23;2.87;;;;;;;;;;6359066;28;20296;-55
2024/02/10 02:23:21;;;;;;;3.00;2.80;;;;;;;;;;6359482;28;20311;-56
2024/02/10 02:26:25;;;;;;;3.27;3.00;;;;;;;;;;6358576;28;20304;-56
2024/02/10 02:29:29;;;;;;;2.77;2.60;;;;;;;;;;6358841;28;20297;-56
2024/02/10 02:32:34;;;;;;;2.80;2.60;;;;;;;;;;6359097;28;20284;-58
2024/02/10 02:35:40;;;;;;;2.77;2.30;;;;;;;;;;6358638;28;20576;-56
2024/02/10 02:38:45;;;;;;;3.03;2.90;;;;;;;;;;6359301;28;20294;-57
2024/02/10 02:41:50;;;;;;;3.17;2.97;;;;;;;;;;6357918;28;20289;-54
2024/02/10 02:44:53;;;;;;;3.10;2.90;;;;;;;;;;6358306;28;20287;-57
2024/02/10 02:48:01;;;;;;;2.80;2.70;;;;;;;;;;6358563;28;20291;-58
2024/02/10 02:51:06;;;;;;;2.80;2.60;;;;;;;;;;6358047;28;20292;-56
2024/02/10 02:54:11;;;;;;;2.70;2.50;;;;;;;;;;6357617;28;20542;-56
2024/02/10 02:57:17;;;;;;;2.40;2.20;;;;;;;;;;6358653;28;20291;-57
2024/02/10 03:00:21;;;;;;;2.57;2.47;;;;;;;;;;6346981;28;20498;-56
2024/02/10 03:03:25;;;;;;;2.30;2.30;;;;;;;;;;6338892;28;20291;-57
2024/02/10 03:06:32;;;;;;;2.40;2.20;;;;;;;;;;6358095;28;20301;-56
2024/02/10 03:09:37;;;;;;;2.27;2.17;;;;;;;;;;6357710;28;20532;-57
2024/02/10 03:12:42;;;;;;;2.33;2.30;;;;;;;;;;6357890;28;20579;-57
2024/02/10 03:15:47;;;;;;;2.50;2.40;;;;;;;;;;6357911;28;20297;-58
2024/02/10 03:18:51;;;;;;;2.47;2.40;;;;;;;;;;6358634;28;20299;-57
2024/02/10 03:22:00;;;;;;;2.83;2.73;;;;;;;;;;6357817;28;20307;-56
2024/02/10 03:25:06;;;;;;;2.87;2.50;;;;;;;;;;6357785;28;20385;-57
2024/02/10 03:28:10;;;;;;;4.67;2.80;;;;;;;;;;6357910;28;20320;-54
2024/02/10 03:31:14;;;;;;;3.20;2.80;;;;;;;;;;6357696;28;20291;-57
2024/02/10 03:34:18;;;;;;;2.97;2.77;;;;;;;;;;6357126;28;20293;-56
2024/02/10 03:37:28;;;;;;;2.73;2.63;;;;;;;;;;6358090;28;20315;-57
2024/02/10 03:40:33;;;;;;;2.80;2.70;;;;;;;;;;6357586;28;20292;-58
2024/02/10 03:43:37;;;;;;;2.60;2.40;;;;;;;;;;6357817;28;20423;-57
2024/02/10 03:46:41;;;;;;;3.00;2.80;;;;;;;;;;6357509;28;20307;-57
2024/02/10 03:49:47;;;;;;;2.90;2.70;;;;;;;;;;6338805;28;20291;-56
2024/02/10 03:52:51;;;;;;;2.80;2.70;;;;;;;;;;6357928;28;20360;-55
2024/02/10 03:55:57;;;;;;;3.00;2.90;;;;;;;;;;6356874;28;20296;-56
2024/02/10 03:59:02;;;;;;;3.60;3.45;;;;;;;;;;6355672;28;20483;-55
2024/02/10 04:02:07;;;;;;;3.53;3.00;;;;;;;;;;6358568;28;20379;-58
2024/02/10 04:05:13;;;;;;;3.73;2.90;;;;;;;;;;6364663;28;20299;-56
2024/02/10 04:08:19;;;;;;;3.58;3.35;;;;;;;;;;6355449;28;20636;-57
2024/02/10 04:11:24;;;;;;;2.60;2.50;;;;;;;;;;6357499;28;20295;-58
2024/02/10 04:14:28;;;;;;;2.40;2.40;;;;;;;;;;6382223;28;20579;-57
2024/02/10 04:17:32;;;;;;;2.57;2.53;;;;;;;;;;6359450;28;20577;-57
2024/02/10 04:20:36;;;;;;;3.87;2.53;;;;;;;;;;6377917;28;20291;-57
2024/02/10 04:23:40;;;;;;;2.27;2.27;;;;;;;;;;6385036;27;20291;-57
2024/02/10 04:26:48;;;;;;;1.90;1.90;;;;;;;;;;6387801;27;20300;-58
2024/02/10 04:29:52;;;;;;;2.10;2.10;;;;;;;;;;6387454;27;20291;-56
2024/02/10 04:32:56;;;;;;;2.50;2.00;;;;;;;;;;6376253;27;20290;-57
2024/02/10 04:36:01;;;;;;;2.20;1.90;;;;;;;;;;6380857;27;20292;-58
2024/02/10 04:39:05;;;;;;;2.10;2.10;;;;;;;;;;6361615;28;20292;-57
2024/02/10 04:42:10;;;;;;;2.30;2.13;;;;;;;;;;6362035;28;20339;-58
2024/02/10 04:45:26;;;;;;;2.43;2.33;;;;;;;;;;6361183;28;20304;-57
2024/02/10 04:48:30;;;;;;;1.97;1.97;;;;;;;;;;6360558;28;20447;-57
2024/02/10 04:51:35;;;;;;;2.20;2.10;;;;;;;;;;6361679;28;20316;-57
2024/02/10 04:54:40;;;;;;;2.30;2.30;;;;;;;;;;6361462;28;20309;-56
2024/02/10 04:57:46;;;;;;;2.53;2.10;;;;;;;;;;6361639;28;20297;-56
2024/02/10 05:00:50;;;;;;;2.40;2.30;;;;;;;;;;6362059;28;20299;-57
2024/02/10 05:03:54;;;;;;;2.00;1.90;;;;;;;;;;6361448;28;20299;-58
2024/02/10 05:06:57;;;;;;;1.73;1.73;;;;;;;;;;6361433;28;20441;-57
2024/02/10 05:10:01;;;;;;;2.20;2.10;;;;;;;;;;6360781;28;20303;-57
2024/02/10 05:13:08;;;;;;;2.10;2.07;;;;;;;;;;6361065;28;20304;-57
2024/02/10 05:16:11;;;;;;;1.83;1.83;;;;;;;;;;6361673;28;20296;-56
2024/02/10 05:19:17;;;;;;;2.10;2.10;;;;;;;;;;6360076;28;20592;-57
2024/02/10 05:22:24;;;;;;;2.40;2.30;;;;;;;;;;6361447;28;20549;-57
2024/02/10 05:25:34;;;;;;;2.20;2.10;;;;;;;;;;6360836;28;20292;-57
2024/02/10 05:28:41;;;;;;;1.90;1.90;;;;;;;;;;6360521;28;20297;-57
2024/02/10 05:31:47;;;;;;;1.97;1.97;;;;;;;;;;6361227;28;20289;-57
2024/02/10 05:34:52;;;;;;;2.20;2.20;;;;;;;;;;6359999;28;20560;-57
2024/02/10 05:37:58;;;;;;;2.00;1.90;;;;;;;;;;6360058;28;20289;-57
2024/02/10 05:41:04;;;;;;;1.90;1.90;;;;;;;;;;6360978;28;20311;-55
2024/02/10 05:44:12;;;;;;;1.80;1.80;;;;;;;;;;6360468;28;20302;-56
2024/02/10 05:47:17;;;;;;;2.10;2.10;;;;;;;;;;6361064;28;20296;-57
2024/02/10 05:50:22;;;;;;;1.97;1.90;;;;;;;;;;6360110;28;20550;-57
2024/02/10 05:53:27;;;;;;;1.87;1.80;;;;;;;;;;6359437;28;20319;-57
2024/02/10 05:56:33;;;;;;;2.50;2.30;;;;;;;;;;6360110;28;20289;-57
2024/02/10 05:59:38;;;;;;;1.87;1.60;;;;;;;;;;6359865;28;20301;-55
2024/02/10 06:02:42;;;;;;;2.67;2.00;;;;;;;;;;6359360;28;20291;-57
2024/02/10 06:05:46;;;;;;;1.87;1.87;;;;;;;;;;6360347;28;20288;-57
2024/02/10 06:08:50;;;;;;;2.00;1.97;;;;;;;;;;6359882;28;20302;-57
2024/02/10 06:11:54;;;;;;;2.37;2.20;;;;;;;;;;6355858;28;20289;-57
2024/02/10 06:14:59;;;;;;;2.23;2.03;;;;;;;;;;6358931;28;20291;-57
2024/02/10 06:18:04;;;;;;;2.13;2.13;;;;;;;;;;6359035;28;20289;-57
2024/02/10 06:21:09;;;;;;;1.80;1.77;;;;;;;;;;6359682;28;20292;-57
2024/02/10 06:24:13;;;;;;;1.73;1.73;;;;;;;;;;6359264;28;20289;-55
2024/02/10 06:27:20;;;;;;;1.80;1.80;;;;;;;;;;6359821;28;20292;-56
2024/02/10 06:30:27;;;;;;;1.87;1.87;;;;;;;;;;6358180;28;20300;-57
2024/02/10 06:33:31;;;;;;;2.07;1.97;;;;;;;;;;6358521;28;20426;-56
2024/02/10 06:36:35;;;;;;;2.07;2.07;;;;;;;;;;6359308;28;20565;-58
2024/02/10 06:39:39;;;;;;;2.17;2.10;;;;;;;;;;6345890;28;20401;-57
2024/02/10 06:42:48;;;;;;;2.33;2.07;;;;;;;;;;6333114;28;20345;-55
2024/02/10 06:46:00;;;;;;;1.70;1.70;;;;;;;;;;6332718;28;20561;-56
2024/02/10 06:49:06;;;;;;;1.60;1.60;;;;;;;;;;6332982;28;20314;-55
2024/02/10 06:52:11;;;;;;;1.80;1.70;;;;;;;;;;6333088;28;20483;-58
2024/02/10 06:55:14;;;;;;;1.90;1.90;;;;;;;;;;6332859;28;20520;-58
2024/02/10 06:58:19;;;;;;;1.97;1.83;;;;;;;;;;6332964;28;20469;-57
2024/02/10 07:01:24;;;;;;;2.37;1.80;;;;;;;;;;6333408;28;20582;-58
2024/02/10 07:04:29;;;;;;;2.03;1.93;;;;;;;;;;6332892;28;20290;-58
2024/02/10 07:07:33;;;;;;;2.03;2.00;;;;;;;;;;6332948;28;20298;-57
2024/02/10 07:10:37;;;;;;;1.73;1.73;;;;;;;;;;6333235;28;20294;-56
2024/02/10 07:13:42;;;;;;;1.90;1.80;;;;;;;;;;6332616;28;20291;-57
2024/02/10 07:16:47;;;;;;;2.23;1.90;;;;;;;;;;6348910;28;20302;-57
2024/02/10 07:19:52;;;;;;;2.00;1.80;;;;;;;;;;6338749;28;20297;-57
2024/02/10 07:22:59;;;;;;;1.90;1.80;;;;;;;;;;6357786;28;20290;-56
2024/02/10 07:26:05;;;;;;;1.77;1.77;;;;;;;;;;6357941;28;20291;-57
2024/02/10 07:29:09;;;;;;;2.40;1.90;;;;;;;;;;6357560;28;20301;-57
2024/02/10 07:32:14;;;;;;;2.20;2.00;;;;;;;;;;6358234;28;20568;-56
2024/02/10 07:35:21;;;;;;;1.90;1.90;;;;;;;;;;6357280;28;20294;-57
2024/02/10 07:38:26;;;;;;;1.83;1.80;;;;;;;;;;6357213;28;20290;-57
2024/02/10 07:41:30;;;;;;;1.87;1.80;;;;;;;;;;6357966;28;20295;-57
2024/02/10 07:44:34;;;;;;;1.70;1.70;;;;;;;;;;6356898;28;20369;-57
2024/02/10 07:47:40;;;;;;;1.90;1.80;;;;;;;;;;6356453;28;20543;-58
2024/02/10 07:50:46;;;;;;;1.90;1.90;;;;;;;;;;6356631;28;20335;-56
2024/02/10 07:53:50;;;;;;;1.97;1.97;;;;;;;;;;6356771;28;20454;-56
2024/02/10 07:56:54;;;;;;;1.90;1.80;;;;;;;;;;6381637;27;20583;-57
2024/02/10 07:59:58;;;;;;;1.83;1.77;;;;;;;;;;6382498;27;20286;-58
2024/02/10 08:03:04;;;;;;;1.90;1.80;;;;;;;;;;6382855;27;20290;-58
2024/02/10 08:06:08;;;;;;;3.40;1.80;;;;;;;;;;6383209;28;20311;-58
2024/02/10 08:09:12;;;;;;;1.80;1.70;;;;;;;;;;6382407;28;20297;-58
2024/02/10 08:12:20;;;;;;;2.00;2.00;;;;;;;;;;6357855;28;20341;-57
2024/02/10 08:15:29;;;;;;;1.87;1.70;;;;;;;;;;6356268;28;20302;-57
2024/02/10 08:18:35;;;;;;;1.50;1.50;;;;;;;;;;6356807;28;20291;-57
2024/02/10 08:21:39;;;;;;;2.10;1.90;;;;;;;;;;6357165;28;20300;-56
2024/02/10 08:24:45;;;;;;;2.10;1.90;;;;;;;;;;6356867;28;20393;-57
2024/02/10 08:27:49;;;;;;;2.03;1.90;;;;;;;;;;6356826;28;20474;-57
2024/02/10 08:30:54;;;;;;;2.07;2.00;;;;;;;;;;6357193;28;20457;-58
2024/02/10 08:33:59;;;;;;;2.03;1.93;;;;;;;;;;6356383;28;20299;-57
2024/02/10 08:37:03;;;;;;;1.87;1.80;;;;;;;;;;6357285;28;20287;-57
2024/02/10 08:40:10;;;;;;;2.00;1.90;;;;;;;;;;6357187;28;20300;-58
2024/02/10 08:43:14;;;;;;;2.17;1.90;;;;;;;;;;6356531;28;20299;-57
2024/02/10 08:46:19;;;;;;;2.60;2.50;;;;;;;;;;6357126;28;20360;-58
2024/02/10 08:49:25;;;;;;;2.20;2.20;;;;;;;;;;6350179;28;20323;-58
2024/02/10 08:52:30;;;;;;;2.50;2.30;;;;;;;;;;6381844;27;20327;-58
2024/02/10 08:55:34;;;;;;;1.83;1.83;;;;;;;;;;6382385;28;20304;-56
2024/02/10 08:58:39;;;;;;;2.73;2.63;;;;;;;;;;6381988;28;20482;-57
2024/02/10 09:01:43;;;;;;;2.27;2.17;;;;;;;;;;6382291;28;20454;-58
2024/02/10 09:04:49;;;;;;;2.30;2.20;;;;;;;;;;6381273;28;20558;-59
2024/02/10 09:07:53;;;;;;;2.07;1.90;;;;;;;;;;6381941;27;20286;-58
2024/02/10 09:10:58;;;;;;;2.30;2.20;;;;;;;;;;6371684;27;20294;-57
2024/02/10 09:14:02;;;;;;;2.20;2.10;;;;;;;;;;6360954;28;20306;-55
2024/02/10 09:17:06;;;;;;;2.00;1.90;;;;;;;;;;6353887;28;20294;-58
2024/02/10 09:20:13;;;;;;;2.13;2.03;;;;;;;;;;6360236;28;20291;-57
2024/02/10 09:23:17;;;;;;;2.10;2.00;;;;;;;;;;6359752;28;20441;-57
2024/02/10 09:26:21;;;;;;;2.37;2.27;;;;;;;;;;6360873;28;20290;-58
2024/02/10 09:29:26;;;;;;;2.10;1.97;;;;;;;;;;6360342;28;20295;-58
2024/02/10 09:32:30;;;;;;;2.17;2.07;;;;;;;;;;6360582;28;20612;-57
2024/02/10 09:35:39;;;;;;;2.07;2.07;;;;;;;;;;6360849;28;20283;-56
2024/02/10 09:38:45;;;;;;;2.20;2.20;;;;;;;;;;6360273;28;20317;-55
2024/02/10 09:41:51;;;;;;;2.20;2.00;;;;;;;;;;6360502;28;20298;-56
2024/02/10 09:44:57;;;;;;;2.40;2.30;;;;;;;;;;6358497;28;20756;-56
2024/02/10 09:48:01;;;;;;;3.60;2.00;;;;;;;;;;6359952;28;20292;-57
2024/02/10 09:51:06;;;;;;;3.30;2.10;;;;;;;;;;6331962;28;20433;-57
2024/02/10 09:54:13;;;;;;;2.10;2.10;;;;;;;;;;6359120;28;20290;-58
2024/02/10 09:57:22;;;;;;;2.90;2.23;;;;;;;;;;6359977;28;20288;-56
2024/02/10 10:00:26;;;;;;;2.87;2.37;;;;;;;;;;6359152;28;20291;-58
2024/02/10 10:03:30;;;;;;;2.40;2.30;;;;;;;;;;6359377;28;20593;-57
2024/02/10 10:06:36;;;;;;;2.93;2.27;;;;;;;;;;6359826;28;20605;-57
2024/02/10 10:09:39;;;;;;;2.70;2.50;;;;;;;;;;6356652;28;20294;-59
2024/02/10 10:12:43;;;;;;;2.40;2.30;;;;;;;;;;6334497;28;20521;-58
2024/02/10 10:15:48;;;;;;;2.20;2.10;;;;;;;;;;6367974;27;20291;-57
2024/02/10 10:18:55;;;;;;;2.30;2.20;;;;;;;;;;6385286;27;20294;-58
2024/02/10 10:22:01;;;;;;;2.03;1.93;;;;;;;;;;6385280;27;20287;-58
2024/02/10 10:25:06;;;;;;;2.70;2.50;;;;;;;;;;6385007;27;20423;-58
2024/02/10 10:28:16;;;;;;;2.27;2.17;;;;;;;;;;6384463;27;20288;-55
2024/02/10 10:31:20;;;;;;;2.93;1.97;;;;;;;;;;6384833;27;20290;-58
2024/02/10 10:34:28;;;;;;;2.70;2.50;;;;;;;;;;6384866;27;20291;-58
2024/02/10 10:37:33;;;;;;;3.50;2.60;;;;;;;;;;6384570;27;20303;-59
2024/02/10 10:40:38;;;;;;;3.00;2.80;;;;;;;;;;6384823;27;20494;-57
2024/02/10 10:43:43;;;;;;;2.30;2.20;;;;;;;;;;6384511;27;20316;-58
2024/02/10 10:46:48;;;;;;;3.30;2.50;;;;;;;;;;6384867;27;20295;-56
2024/02/10 10:49:53;;;;;;;2.70;2.60;;;;;;;;;;6384314;27;20365;-58
2024/02/10 10:53:05;;;;;;;5.07;2.57;;;;;;;;;;6384040;27;20286;-57
2024/02/10 10:56:10;;;;;;;2.70;2.50;;;;;;;;;;6384511;27;20327;-56
2024/02/10 10:59:15;;;;;;;3.70;2.70;;;;;;;;;;6384247;27;20614;-59
2024/02/10 11:02:19;;;;;;;2.90;2.70;;;;;;;;;;6384669;27;20303;-57
2024/02/10 11:05:42;;;;;;;2.97;2.83;;;;;;;;;;6384344;27;20299;-57
2024/02/10 11:08:55;;;;;;;2.77;2.67;;;;;;;;;;6384058;27;20291;-57
2024/02/10 11:11:59;;;;;;;3.07;2.87;;;;;;;;;;6362217;27;20296;-58
2024/02/10 11:15:04;;;;;;;4.25;3.80;;;;;;;;;;6358613;27;20448;-57
2024/02/10 11:18:17;;;;;;;2.97;2.77;;;;;;;;;;6384242;27;20292;-58
2024/02/10 11:21:25;;;;;;;3.97;2.90;;;;;;;;;;6384777;27;20302;-57
2024/02/10 11:24:32;;;;;;;6.23;3.40;;;;;;;;;;6381663;27;20296;-57
2024/02/10 11:27:36;;;;;;;6.13;3.30;;;;;;;;;;6383498;27;20364;-59
2024/02/10 11:30:40;;;;;;;3.10;2.90;;;;;;;;;;6384369;27;20287;-58
2024/02/10 11:33:48;;;;;;;6.90;3.67;;;;;;;;;;6382799;27;20508;-56
2024/02/10 11:36:53;;;;;;;3.13;2.73;;;;;;;;;;6383793;27;20287;-57
2024/02/10 11:39:59;;;;;;;5.57;2.90;;;;;;;;;;6383879;27;20295;-57
2024/02/10 11:43:04;;;;;;;3.00;2.87;;;;;;;;;;6383474;27;20294;-58
2024/02/10 11:46:09;;;;;;;6.50;2.90;;;;;;;;;;6383882;27;20312;-57
2024/02/10 11:49:13;;;;;;;3.03;2.90;;;;;;;;;;6383290;27;20391;-57
2024/02/10 11:52:17;;;;;;;3.03;2.83;;;;;;;;;;6383908;27;20581;-58
2024/02/10 11:55:22;;;;;;;2.80;2.63;;;;;;;;;;6383061;27;20303;-58
2024/02/10 11:58:29;;;;;;;4.60;2.53;;;;;;;;;;6383874;27;20304;-57
2024/02/10 12:01:34;;;;;;;2.87;2.63;;;;;;;;;;6384362;27;20594;-58
2024/02/10 12:04:38;;;;;;;2.70;2.60;;;;;;;;;;6383325;28;20296;-58
2024/02/10 12:07:44;;;;;;;3.07;2.87;;;;;;;;;;6383418;27;20291;-56
2024/02/10 12:10:50;;;;;;;3.00;2.80;;;;;;;;;;6371051;28;20453;-58
2024/02/10 12:13:55;;;;;;;3.33;3.03;;;;;;;;;;6357968;28;20476;-58
2024/02/10 12:17:00;;;;;;;3.60;2.80;;;;;;;;;;6350438;28;20368;-57
2024/02/10 12:20:05;;;;;;;3.00;2.80;;;;;;;;;;6382645;28;20423;-58
2024/02/10 12:23:09;;;;;;;3.07;2.83;;;;;;;;;;6382594;27;20307;-54
2024/02/10 12:26:15;;;;;;;2.67;2.47;;;;;;;;;;6353672;28;20334;-57
2024/02/10 12:29:19;;;;;;;3.60;3.40;;;;;;;;;;6344076;28;20295;-57
2024/02/10 12:32:28;;;;;;;3.13;2.80;;;;;;;;;;6357121;28;20296;-59
2024/02/10 12:35:33;;;;;;;8.23;3.33;;;;;;;;;;6357272;28;20300;-58
2024/02/10 12:38:38;;;;;;;2.90;2.70;;;;;;;;;;6357190;28;20296;-57
2024/02/10 12:41:44;;;;;;;3.57;3.27;;;;;;;;;;6357770;28;20295;-57
2024/02/10 12:44:51;;;;;;;4.40;3.33;;;;;;;;;;6358264;28;20291;-57
2024/02/10 12:47:54;;;;;;;3.47;3.17;;;;;;;;;;6343109;28;20308;-57
2024/02/10 12:50:58;;;;;;;3.37;3.13;;;;;;;;;;6362512;28;20291;-58
2024/02/10 12:54:04;;;;;;;3.20;2.97;;;;;;;;;;6361364;28;20300;-57
2024/02/10 12:57:10;;;;;;;3.17;2.97;;;;;;;;;;6362623;28;20303;-55
2024/02/10 13:00:21;;;;;;;2.73;2.63;;;;;;;;;;6362029;28;20300;-57
2024/02/10 13:03:26;;;;;;;3.70;3.40;;;;;;;;;;6361395;28;20295;-59
2024/02/10 13:06:30;;;;;;;7.43;4.60;;;;;;;;;;6361820;28;20292;-59
2024/02/10 13:09:35;;;;;;;3.33;3.07;;;;;;;;;;6361535;28;20293;-57
2024/02/10 13:12:40;;;;;;;3.90;3.20;;;;;;;;;;6361564;28;20300;-57
2024/02/10 13:15:45;;;;;;;3.77;3.50;;;;;;;;;;6362077;28;20288;-59
2024/02/10 13:18:49;;;;;;;3.20;3.00;;;;;;;;;;6342323;28;20573;-57
2024/02/10 13:21:53;;;;;;;2.97;2.80;;;;;;;;;;6361875;28;20280;-57
2024/02/10 13:24:57;;;;;;;3.37;3.07;;;;;;;;;;6361105;28;20422;-57
2024/02/10 13:28:04;;;;;;;3.37;3.13;;;;;;;;;;6361373;28;20287;-57
2024/02/10 13:31:08;;;;;;;3.60;3.40;;;;;;;;;;6360954;28;20332;-55
2024/02/10 13:34:13;;;;;;;3.30;3.10;;;;;;;;;;6359704;28;20600;-58
2024/02/10 14:01:17;;;;;;;3.40;3.20;;;;;;;;;;6360627;28;20580;-58
2024/02/10 14:04:31;;;;;;;3.87;3.57;;;;;;;;;;6359862;28;20601;-55
2024/02/10 14:11:00;;;;;;;5.60;3.17;;;;;;;;;;6360502;28;20295;-58
2024/02/10 14:14:04;;;;;;;3.47;3.27;;;;;;;;;;6359615;28;20319;-57
2024/02/10 14:17:14;;;;;;;3.80;3.60;;;;;;;;;;6359777;28;20439;-56
2024/02/10 14:20:19;;;;;;;3.87;3.20;;;;;;;;;;6359854;28;20296;-56
2024/02/10 14:23:24;;;;;;;4.97;3.80;;;;;;;;;;6359489;28;20561;-58
2024/02/10 14:26:41;;;;;;;8.43;3.53;;;;;;;;;;6359942;28;20296;-58
2024/02/10 14:29:46;;;;;;;3.83;3.47;;;;;;;;;;6359124;28;20297;-57
2024/02/10 14:32:53;;;;;;;3.77;3.40;;;;;;;;;;6359115;28;20315;-60
2024/02/10 14:36:05;;;;;;;6.83;3.27;;;;;;;;;;6359160;28;20295;-57
2024/02/10 14:39:13;;;;;;;5.67;3.10;;;;;;;;;;6359057;28;20292;-57
2024/02/10 14:42:19;;;;;;;3.50;3.20;;;;;;;;;;6359003;28;20311;-57
2024/02/10 14:45:23;;;;;;;3.60;3.40;;;;;;;;;;6358135;28;20363;-60
2024/02/10 14:48:29;;;;;;;3.43;3.23;;;;;;;;;;6359057;28;20296;-60
2024/02/10 14:51:34;;;;;;;4.20;3.90;;;;;;;;;;6358249;28;20631;-59
2024/02/10 14:54:38;;;;;;;3.57;3.40;;;;;;;;;;6358806;28;20301;-58
2024/02/10 14:57:42;;;;;;;4.17;3.77;;;;;;;;;;6358987;28;20301;-57
2024/02/10 15:00:46;;;;;;;3.73;3.53;;;;;;;;;;6359254;28;20556;-58
2024/02/10 15:03:52;;;;;;;4.73;3.47;;;;;;;;;;6358811;28;20300;-58
2024/02/10 15:07:01;;;;;;;6.00;3.50;;;;;;;;;;6358915;28;20229;-56
2024/02/10 15:10:06;;;;;;;3.87;3.57;;;;;;;;;;6340442;28;20292;-57
2024/02/10 15:13:09;;;;;;;3.97;3.63;;;;;;;;;;6340048;28;20296;-60
2024/02/10 15:16:18;;;;;;;9.50;3.60;;;;;;;;;;6358716;28;20280;-57
2024/02/10 15:19:23;;;;;;;4.20;3.37;;;;;;;;;;6358053;28;20289;-59
2024/02/10 15:22:27;;;;;;;4.70;3.60;;;;;;;;;;6358080;28;20295;-61
2024/02/10 15:25:32;;;;;;;3.93;3.50;;;;;;;;;;6358443;28;20459;-58
2024/02/10 15:28:36;;;;;;;4.37;3.97;;;;;;;;;;6357707;28;20297;-58
2024/02/10 15:31:40;;;;;;;6.90;4.20;;;;;;;;;;6358959;28;20304;-57
2024/02/10 15:34:47;;;;;;;3.97;3.60;;;;;;;;;;6357991;28;20299;-55
2024/02/10 15:38:05;;;;;;;3.77;3.47;;;;;;;;;;6331783;28;20291;-59
2024/02/10 15:41:11;;;;;;;6.33;3.70;;;;;;;;;;6354645;28;20295;-58
2024/02/10 15:44:17;;;;;;;4.87;4.03;;;;;;;;;;6349661;28;20296;-56
2024/02/10 15:47:22;;;;;;;4.20;3.80;;;;;;;;;;6359329;28;20287;-58
2024/02/10 15:50:27;;;;;;;4.07;3.70;;;;;;;;;;6357933;28;20305;-59
2024/02/10 15:53:31;;;;;;;5.00;4.23;;;;;;;;;;6338841;28;20384;-59
2024/02/10 15:56:35;;;;;;;4.80;3.50;;;;;;;;;;6357777;28;20313;-58
2024/02/10 15:59:41;;;;;;;5.20;4.40;;;;;;;;;;6356188;28;20466;-58
2024/02/10 16:02:48;;;;;;;4.13;3.83;;;;;;;;;;6338485;28;20289;-58
2024/02/10 16:05:55;;;;;;;4.03;3.70;;;;;;;;;;6357520;28;20469;-56
2024/02/10 16:08:59;;;;;;;5.73;4.20;;;;;;;;;;6357311;28;20288;-58
2024/02/10 16:12:05;;;;;;;3.33;3.13;;;;;;;;;;6358431;28;20288;-57
2024/02/10 16:15:13;;;;;;;5.00;3.70;;;;;;;;;;6357602;28;20314;-58
2024/02/10 16:18:17;;;;;;;4.03;3.73;;;;;;;;;;6346704;28;20314;-58
2024/02/10 16:21:26;;;;;;;3.50;3.20;;;;;;;;;;6362876;28;20449;-57
2024/02/10 16:24:31;;;;;;;4.23;3.93;;;;;;;;;;6361896;28;20293;-58
2024/02/10 16:27:38;;;;;;;6.67;3.93;;;;;;;;;;6362392;28;20468;-57
2024/02/10 16:30:43;;;;;;;3.87;3.50;;;;;;;;;;6363303;28;20288;-57
2024/02/10 16:33:49;;;;;;;3.97;3.60;;;;;;;;;;6362310;28;20293;-56
2024/02/10 16:36:58;;;;;;;5.87;4.50;;;;;;;;;;6362750;28;20298;-57
2024/02/10 16:40:03;;;;;;;5.13;3.93;;;;;;;;;;6362113;28;20424;-58
2024/02/10 16:43:07;;;;;;;4.73;4.20;;;;;;;;;;6361176;28;20288;-57
2024/02/10 16:46:16;;;;;;;5.90;4.17;;;;;;;;;;6362283;28;20293;-58
2024/02/10 16:49:22;;;;;;;5.43;3.53;;;;;;;;;;6361971;28;20301;-60
2024/02/10 16:52:29;;;;;;;5.27;3.93;;;;;;;;;;6362181;28;20301;-55
2024/02/10 16:55:37;;;;;;;4.37;3.43;;;;;;;;;;6361463;28;20295;-57
2024/02/10 16:58:41;;;;;;;3.73;3.43;;;;;;;;;;6361450;28;20302;-56
2024/02/10 17:01:45;;;;;;;3.47;3.17;;;;;;;;;;6361762;28;20580;-57
2024/02/10 17:04:57;;;;;;;5.20;3.83;;;;;;;;;;6361245;28;20308;-56
2024/02/10 17:08:03;;;;;;;4.30;3.30;;;;;;;;;;6361292;28;20284;-58
2024/02/10 17:11:08;;;;;;;5.13;3.33;;;;;;;;;;6361442;28;20294;-58
2024/02/10 17:14:14;;;;;;;4.23;3.40;;;;;;;;;;6361073;28;20322;-57
2024/02/10 17:17:22;;;;;;;3.43;3.00;;;;;;;;;;6361511;28;20285;-58
2024/02/10 17:20:30;;;;;;;4.10;3.00;;;;;;;;;;6360757;28;20585;-59
2024/02/10 17:23:36;;;;;;;3.40;3.30;;;;;;;;;;6343085;28;20283;-58
2024/02/10 17:26:40;;;;;;;4.47;3.20;;;;;;;;;;6361346;28;20291;-58
2024/02/10 17:29:44;;;;;;;3.87;3.57;;;;;;;;;;6359899;28;20293;-57
2024/02/10 17:32:48;;;;;;;3.60;3.30;;;;;;;;;;6360892;28;20681;-57
2024/02/10 17:35:52;;;;;;;8.33;3.63;;;;;;;;;;6360761;28;20292;-57
2024/02/10 17:39:00;;;;;;;3.50;3.20;;;;;;;;;;6360132;28;20291;-56
2024/02/10 17:42:06;;;;;;;6.53;3.53;;;;;;;;;;6360663;28;20287;-58
2024/02/10 17:45:12;;;;;;;4.23;3.80;;;;;;;;;;6359917;28;20316;-57
2024/02/10 17:48:19;;;;;;;3.40;3.10;;;;;;;;;;6360096;28;20292;-58
2024/02/10 17:51:27;;;;;;;4.10;3.37;;;;;;;;;;6360041;28;20292;-58
2024/02/10 17:54:33;;;;;;;3.93;3.57;;;;;;;;;;6341483;28;20497;-58
2024/02/10 17:57:37;;;;;;;4.70;4.00;;;;;;;;;;6358356;28;20455;-58
2024/02/10 18:00:41;;;;;;;3.50;3.20;;;;;;;;;;6341534;28;20316;-58
2024/02/10 18:03:45;;;;;;;3.40;3.10;;;;;;;;;;6359825;28;20289;-58
2024/02/10 18:06:49;;;;;;;3.30;3.00;;;;;;;;;;6360063;28;20443;-59
2024/02/10 18:09:55;;;;;;;4.07;3.75;;;;;;;;;;6358166;28;20435;-58
2024/02/10 18:13:00;;;;;;;4.17;3.40;;;;;;;;;;6359130;28;20290;-58
2024/02/10 18:16:07;;;;;;;3.93;3.60;;;;;;;;;;6359948;28;20344;-59
2024/02/10 18:19:11;;;;;;;4.00;3.67;;;;;;;;;;6359481;28;20323;-59
2024/02/10 18:22:16;;;;;;;3.33;3.03;;;;;;;;;;6359864;28;20296;-58
2024/02/10 18:25:24;;;;;;;3.77;3.10;;;;;;;;;;6359600;28;20302;-57
2024/02/10 18:28:29;;;;;;;3.27;2.93;;;;;;;;;;6359191;28;20296;-57
2024/02/10 18:31:33;;;;;;;2.97;2.87;;;;;;;;;;6359880;28;20289;-58
2024/02/10 18:34:38;;;;;;;5.60;3.67;;;;;;;;;;6359434;28;20292;-59
2024/02/10 18:37:42;;;;;;;4.63;3.43;;;;;;;;;;6359133;28;20548;-56
2024/02/10 18:40:47;;;;;;;3.33;3.13;;;;;;;;;;6359591;28;20300;-56
2024/02/10 18:43:51;;;;;;;3.57;2.97;;;;;;;;;;6358835;28;20616;-58
2024/02/10 18:46:55;;;;;;;3.37;3.07;;;;;;;;;;6359671;28;20293;-56
2024/02/10 18:50:00;;;;;;;4.60;3.23;;;;;;;;;;6359090;28;20305;-58
2024/02/10 18:53:06;;;;;;;4.20;3.43;;;;;;;;;;6358549;28;20296;-55
2024/02/10 18:56:11;;;;;;;3.70;3.40;;;;;;;;;;6358756;28;20296;-57
2024/02/10 18:59:19;;;;;;;4.80;2.93;;;;;;;;;;6358126;28;20479;-57